Tiempo atmosférico en la estación meteorológica de Los Arcos, Navarra (470 m.)



Fecha
DESCASC
Temp. máxima en grados centígrados (hora)
DESCASC
Temp. mínima en grados centígrados (hora)
DESCASC
Temp. media en grados centígrados
DESCASC
Racha de viento máxima en m/sg (hora)
DESCASC
Velocidad máxima media en intervalos de 10 minutos(hora)
DESCASC
Precipitaciones diarias en mm
DESCASC
Precipitaciones de 00:00 a 06:00 en mm
DESCASC
Precipitaciones de 06:00 a 12:00 en mm
DESCASC
Precipitaciones de 12:00 a 18:00 en mm
DESCASC
Precipitaciones de 18:00 a 24:00 en mm
DESCASC
05-04-2020 16.9 (15:00) 6.7 (07:50) 11.8 13.06 (14:10) 8.33 (14:50) 0 0 0 0 0
04-04-2020 18.3 (16:50) 2.5 (05:00) 10.4 12.78 (16:40) 8.33 (17:00) 0 0 0 0 0
03-04-2020 16.6 (18:00) 1.1 (07:50) 8.9 8.61 (00:30) 4.17 (00:40) 0 0 0 0 0
02-04-2020 14.9 (16:30) 6 (00:00) 10.4 11.94 (22:20) 6.39 (22:20) 1 1 0 0 0
01-04-2020 10 (16:00) 5.1 (00:00) 7.5 6.67 (17:50) 4.17 (18:20) 12 1.2 6.8 1.2 2.8
31-03-2020 5.3 (18:30) 0.3 (00:00) 2.8 4.72 (20:20) 3.06 (23:40) 8.4 1.2 1.6 5.2 0.4
30-03-2020 9.7 (16:00) 1.5 (00:00) 5.6 10 (03:40) 5 (03:40) 0 0 0 0 0
29-03-2020 16 (14:00) 2.3 (00:00) 9.1 9.17 (15:10) 5.28 (19:40) 0 0 0 0 0
28-03-2020 18.8 (16:30) 0.9 (00:00) 9.8 7.78 (22:20) 4.17 (21:50) 0 0 0 0 0
27-03-2020 14.8 (15:40) 0 (00:00) 7.4 4.72 (16:00) 3.33 (20:10) 0 0 0 0 0
26-03-2020 13 (15:00) 1.4 (00:00) 7.2 13.89 (11:50) 7.5 (12:00) 0 0 0 0 0
25-03-2020 14.7 (17:00) 2.5 (00:00) 8.6 7.5 (22:00) 4.17 (15:50) 0 0 0 0 0
24-03-2020 17 (16:00) 6.8 (00:00) 11.9 5.28 (01:50) 3.61 (02:30) 0 0 0 0 0
23-03-2020 16.1 (17:00) 8.2 (00:00) 12.2 11.11 (18:50) 6.67 (18:50) 0.4 0 0 0 0.4
22-03-2020 17.8 (16:10) 5.5 (07:30) 11.6 5.56 (14:20) 3.33 (23:30) 0 0 0 0 0
21-03-2020 15.3 (16:00) 6.3 (00:00) 10.8 9.72 (14:40) 6.67 (14:10) 0 0 0 0 0
20-03-2020 14.6 (16:10) 5.5 (00:00) 10.1 12.78 (15:00) 8.06 (15:10) 0 0 0 0 0
19-03-2020 16.8 (15:40) 8.2 (00:00) 12.5 9.17 (15:30) 5.83 (15:30) 0 0 0 0 0
18-03-2020 15.7 (16:30) 6 (00:00) 10.8 4.72 (11:50) 3.61 (12:00) 0 0 0 0 0
17-03-2020 11 (18:00) 7.3 (00:00) 9.2 8.33 (00:20) 3.61 (00:20) 2 1.8 0.2 0 0
16-03-2020 8.6 (21:40) 2.4 (00:00) 5.5 8.89 (23:50) 4.44 (15:10) 40.2 8.8 14 9 8.4
15-03-2020 18.2 (14:50) 2.5 (00:00) 10.4 9.44 (12:50) 5.28 (16:40) 15.8 0 0 2 13.8
14-03-2020 18.8 (16:20) 0.5 (00:00) 9.6 6.67 (12:10) 3.89 (23:20) 0 0 0 0 0
13-03-2020 15.5 (13:40) 5.7 (23:59) 10.6 8.33 (04:30) 4.44 (10:20) 0 0 0 0 0
12-03-2020 19.8 (14:30) 10.2 (00:00) 15 8.89 (22:00) 4.44 (18:10) 0.2 0 0 0 0.2
11-03-2020 22.7 (15:50) 5 (00:00) 13.9 5 (07:00) 4.44 (07:00) 0 0 0 0 0
10-03-2020 21.7 (14:50) 4.8 (00:00) 13.3 5.83 (03:00) 3.89 (02:50) 0 0 0 0 0

Gráficas

Temp. máximas Temp. mínimas Temp. medias Precipitaciones Rachas de viento máximas Velocidades máximas media en intervalos de 10 minutos

Datos horarios

Fecha y hora oficial Temperatura (ºC) Velocidad del viento (km/h) Dirección del viento Racha (km/h) Dirección de racha Precipitación (mm) Presión (hPa) Tendencia (hPa) Humedad (%)
2020-04-08 23:00:00 13.1 9 Nordeste 15 Nordeste 0 -- -- 82
2020-04-08 22:00:00 12.7 9 Nordeste 12 Nordeste 0 -- -- 84
2020-04-08 21:00:00 14.3 8 Este 10 Este 0 -- -- 78
2020-04-08 20:00:00 16.4 6 Este 13 Sudeste 0 -- -- 73
2020-04-08 19:00:00 17.1 9 Este 15 Este 0 -- -- 70
2020-04-08 18:00:00 17.8 6 Sudeste 15 Sudeste 0 -- -- 67
2020-04-08 17:00:00 18.8 6 Sudeste 15 Sudeste 0 -- -- 62
2020-04-08 16:00:00 18.2 8 Sudeste 19 Sudeste 0 -- -- 61
2020-04-08 15:00:00 17.3 9 Sudeste 19 Sudeste 0 -- -- 63
2020-04-08 14:00:00 16.3 12 Este 22 Sudeste 0 -- -- 64
2020-04-08 13:00:00 15 10 Este 19 Este 0 -- -- 66
2020-04-08 12:00:00 13 9 Este 15 Este 0 -- -- 73
2020-04-08 11:00:00 11.4 11 Este 18 Este 0 -- -- 78
2020-04-08 10:00:00 11.3 9 Este 15 Este 0 -- -- 80
2020-04-08 09:00:00 10.4 6 Nordeste 12 Este 0 -- -- 85
2020-04-08 08:00:00 10.3 6 Este 10 Este 0 -- -- 84
2020-04-08 07:00:00 10.8 7 Este 14 Nordeste 0 -- -- 84
2020-04-08 06:00:00 11 10 Este 17 Este 0 -- -- 86
2020-04-08 05:00:00 11.1 10 Este 19 Este 0 -- -- 87
2020-04-08 04:00:00 11.2 13 Este 22 Este 0 -- -- 88
2020-04-08 03:00:00 11.2 14 Este 22 Este 0 -- -- 89
2020-04-08 02:00:00 11.2 13 Este 24 Este 0 -- -- 90
2020-04-08 01:00:00 11.5 15 Este 22 Este 0 -- -- 90
2020-04-08 00:00:00 11.8 8 Este 15 Este 0 -- -- 91
2020-04-07 23:00:00 11.8 7 Este 10 Este 0 -- -- 91
2020-04-07 22:00:00 12.1 6 Este 19 Este 0 -- -- 91
2020-04-07 21:00:00 12.2 8 Este 15 Este 0 -- -- 91
2020-04-07 20:00:00 12.2 4 Nordeste 12 Este 0 -- -- 92
2020-04-07 19:00:00 12.1 6 Sudeste 17 Sudeste 0 -- -- 93
2020-04-07 18:00:00 12.1 4 Sudeste 19 Este 0 -- -- 93
2020-04-07 17:00:00 12 12 Este 22 Este 0 -- -- 91
2020-04-07 16:00:00 11.6 17 Sudeste 28 Este 0 -- -- 92
2020-04-07 15:00:00 11.3 17 Este 30 Este 0 -- -- 93
2020-04-07 14:00:00 10.9 14 Este 24 Este 0 -- -- 95
2020-04-07 13:00:00 9.9 14 Este 27 Este 0 -- -- 96
2020-04-07 12:00:00 9.6 17 Este 27 Este 0.2 -- -- 95
2020-04-07 11:00:00 9.7 15 Este 23 Este 0 -- -- 96
2020-04-07 10:00:00 9.6 16 Este 24 Este 0.4 -- -- 95
2020-04-07 09:00:00 10 14 Este 21 Este 0 -- -- 96
2020-04-07 08:00:00 10.1 13 Este 19 Este 0 -- -- 96
2020-04-07 07:00:00 10.3 12 Este 18 Sudeste 0 -- -- 95
2020-04-07 06:00:00 10.6 9 Este 19 Este 0 -- -- 94
2020-04-07 05:00:00 10.9 11 Este 17 Sudeste 0 -- -- 93
2020-04-07 04:00:00 11.1 12 Este 16 Este 0 -- -- 92
2020-04-07 03:00:00 11.1 11 Este 18 Este 0 -- -- 92
2020-04-07 02:00:00 11 7 Este 14 Nordeste 0 -- -- 92
2020-04-07 01:00:00 11 5 Este 17 Este 0 -- -- 92
2020-04-07 00:00:00 11 8 Este 17 Este 0 -- -- 93
2020-04-06 23:00:00 10.9 9 Este 17 Este 0.2 -- -- 92
2020-04-06 22:00:00 10.7 9 Este 14 Este 1 -- -- 92
2020-04-06 21:00:00 10.9 8 Nordeste 17 Este 2 -- -- 91
2020-04-06 20:00:00 11.8 7 Nordeste 13 Nordeste 0 -- -- 89
2020-04-06 19:00:00 12.2 6 Nordeste 16 Nordeste 0 -- -- 90
2020-04-06 18:00:00 11.8 7 Nordeste 13 Nordeste 0.8 -- -- 91
2020-04-06 17:00:00 11.6 7 Nordeste 13 Este 0.8 -- -- 90
2020-04-06 16:00:00 12.3 8 Este 27 Este 0.4 -- -- 83
2020-04-06 15:00:00 13.9 17 Este 29 Este 0 -- -- 69
2020-04-06 14:00:00 13.9 21 Este 33 Este 0 -- -- 70
2020-04-06 13:00:00 12.4 18 Este 30 Este 0 -- -- 72
2020-04-06 12:00:00 10.6 18 Este 33 Este 0 -- -- 78
2020-04-06 11:00:00 10.6 20 Este 29 Sudeste 0 -- -- 79
2020-04-06 10:00:00 9.6 21 Este 32 Este 0 -- -- 82
2020-04-06 09:00:00 8.7 19 Este 29 Este 0 -- -- 86
2020-04-06 08:00:00 8.5 12 Este 22 Este 0 -- -- 89
2020-04-06 07:00:00 8.8 15 Este 27 Este 0 -- -- 87
2020-04-06 06:00:00 9.1 12 Este 21 Este 0 -- -- 92
2020-04-06 05:00:00 9.4 13 Este 24 Este 0.2 -- -- 91
2020-04-06 04:00:00 9.7 15 Este 24 Este 0 -- -- 89
2020-04-06 03:00:00 10.5 16 Este 27 Sudeste 0 -- -- 84
2020-04-06 02:00:00 11.2 9 Este 24 Este 0 -- -- 80
2020-04-06 01:00:00 11.6 11 Este 25 Este 0 -- -- 76
2020-04-06 00:00:00 12.1 15 Este 27 Este 0 -- -- 73
2020-04-05 23:00:00 12.4 16 Este 30 Este 0 -- -- 70
2020-04-05 22:00:00 12.3 16 Este 26 Este 0 -- -- 71
2020-04-05 21:00:00 12.6 17 Este 25 Este 0 -- -- 73
2020-04-05 20:00:00 14.7 15 Este 29 Este 0 -- -- 66
2020-04-05 19:00:00 15.9 16 Este 32 Este 0 -- -- 63
2020-04-05 18:00:00 16.5 19 Sudeste 38 Sudeste 0 -- -- 60
2020-04-05 17:00:00 15.7 22 Sudeste 41 Sudeste 0 -- -- 61
2020-04-05 16:00:00 16 23 Sudeste 40 Este 0 -- -- 61
2020-04-05 15:00:00 16.9 26 Sudeste 47 Sudeste 0 -- -- 58
2020-04-05 14:00:00 15.9 27 Sudeste 44 Sudeste 0 -- -- 59
2020-04-05 13:00:00 14.1 27 Sudeste 41 Sudeste 0 -- -- 61
2020-04-05 12:00:00 12.6 23 Sudeste 37 Este 0 -- -- 69
2020-04-05 11:00:00 10.2 22 Este 32 Este 0 -- -- 75
2020-04-05 10:00:00 8 18 Este 27 Este 0 -- -- 86
2020-04-05 09:00:00 7.3 13 Este 24 Este 0 -- -- 88
2020-04-05 08:00:00 6.9 7 Este 22 Este 0 -- -- 89
2020-04-05 07:00:00 6.9 16 Este 23 Este 0 -- -- 88
2020-04-05 06:00:00 7.2 17 Este 25 Este 0 -- -- 85
2020-04-05 05:00:00 7.2 15 Este 24 Este 0 -- -- 86
2020-04-05 04:00:00 7.7 8 Este 27 Este 0 -- -- 85
2020-04-05 03:00:00 8.2 18 Este 27 Sudeste 0 -- -- 86
2020-04-05 02:00:00 8.3 11 Este 19 Sudeste 0 -- -- 85
2020-04-05 01:00:00 9.4 12 Este 28 Sudeste 0 -- -- 78
2020-04-05 00:00:00 10.9 14 Sudeste 28 Sudeste 0 -- -- 72
2020-04-04 23:00:00 12.3 18 Sudeste 46 Sudeste 0 -- -- 66
2020-04-04 22:00:00 13 27 Sudeste 40 Sudeste 0 -- -- 61
2020-04-04 21:00:00 13.1 16 Este 33 Sudeste 0 -- -- 62
2020-04-04 20:00:00 15.3 21 Sudeste 40 Sudeste 0 -- -- 57
2020-04-04 19:00:00 17.6 21 Sudeste 39 Sudeste 0 -- -- 47
2020-04-04 18:00:00 17.9 24 Sudeste 44 Sudeste 0 -- -- 39
2020-04-04 17:00:00 18.2 30 Sudeste 46 Sudeste 0 -- -- 36
2020-04-04 16:00:00 17.8 28 Sudeste 41 Sudeste 0 -- -- 42
2020-04-04 15:00:00 16.7 28 Este 45 Este 0 -- -- 47
2020-04-04 14:00:00 15.6 24 Este 39 Sudeste 0 -- -- 57
2020-04-04 13:00:00 14.7 18 Sudeste 32 Este 0 -- -- 65
2020-04-04 12:00:00 12.2 17 Este 26 Este 0 -- -- 71
2020-04-04 11:00:00 10.5 15 Este 24 Este 0 -- -- 74
2020-04-04 10:00:00 9 13 Este 19 Este 0 -- -- 77
2020-04-04 09:00:00 6.1 3 Nordeste 16 Este 0 -- -- 82
2020-04-04 08:00:00 3.8 8 Este 10 Este 0 -- -- 86
2020-04-04 07:00:00 4 8 Nordeste 15 Nordeste 0 -- -- 86
2020-04-04 06:00:00 3.5 8 Nordeste 16 Este 0 -- -- 90
2020-04-04 05:00:00 2.5 0 Calma 9 Norte 0 -- -- 90
2020-04-04 04:00:00 3.1 4 Norte 10 Norte 0 -- -- 91
2020-04-04 03:00:00 3.4 0 Calma 6 Norte 0 -- -- 87
2020-04-04 02:00:00 4 2 Norte 5 Noroeste 0 -- -- 86
2020-04-04 01:00:00 4.9 0 Calma 14 Norte 0 -- -- 82
2020-04-04 00:00:00 5.4 4 Norte 8 Norte 0 -- -- 83
2020-04-03 23:00:00 6.3 5 Nordeste 8 Nordeste 0 -- -- 78
2020-04-03 22:00:00 7.8 4 Nordeste 12 Este 0 -- -- 74
2020-04-03 21:00:00 10.4 9 Este 12 Este 0 -- -- 64
2020-04-03 20:00:00 14.1 5 Sudeste 9 Sudeste 0 -- -- 56
2020-04-03 19:00:00 15.7 5 Sudeste 12 Sudeste 0 -- -- 50
2020-04-03 18:00:00 16.6 4 Sur 11 Sudoeste 0 -- -- 47
2020-04-03 17:00:00 15.9 8 Oeste 16 Sudoeste 0 -- -- 46
2020-04-03 16:00:00 15.4 8 Oeste 17 Norte 0 -- -- 46
2020-04-03 15:00:00 14.6 6 Noroeste 21 Noroeste 0 -- -- 48
2020-04-03 14:00:00 13.8 10 Noroeste 22 Oeste 0 -- -- 53
2020-04-03 13:00:00 12.6 11 Oeste 24 Oeste 0 -- -- 58
2020-04-03 12:00:00 10.9 12 Oeste 23 Noroeste 0 -- -- 60
2020-04-03 11:00:00 9.7 10 Noroeste 19 Noroeste 0 -- -- 61
2020-04-03 10:00:00 6.9 5 Oeste 13 Noroeste 0 -- -- 69
2020-04-03 09:00:00 4 7 Noroeste 13 Noroeste 0 -- -- 84
2020-04-03 08:00:00 1.1 6 Oeste 10 Oeste 0 -- -- 87
2020-04-03 07:00:00 1.8 6 Oeste 11 Noroeste 0 -- -- 83
2020-04-03 06:00:00 3.5 7 Oeste 21 Noroeste 0 -- -- 77
2020-04-03 05:00:00 3.5 8 Noroeste 14 Oeste 0 -- -- 77
2020-04-03 04:00:00 4.2 7 Oeste 21 Noroeste 0 -- -- 74
2020-04-03 03:00:00 4 12 Noroeste 22 Noroeste 0 -- -- 76
2020-04-03 02:00:00 4.3 10 Noroeste 21 Noroeste 0 -- -- 75
2020-04-03 01:00:00 5.3 10 Noroeste 31 Noroeste 0 -- -- 70
2020-04-03 00:00:00 6.3 15 Noroeste 39 Oeste 0 -- -- 67
2020-04-02 23:00:00 6.8 17 Noroeste 43 Noroeste 0 -- -- 66
2020-04-02 22:00:00 7.8 21 Noroeste 42 Noroeste 0 -- -- 67
2020-04-02 21:00:00 9 17 Noroeste 40 Norte 0 -- -- 63
2020-04-02 20:00:00 11.1 16 Noroeste 33 Noroeste 0 -- -- 60
2020-04-02 19:00:00 12.4 14 Norte 29 Noroeste 0 -- -- 57
2020-04-02 18:00:00 13.6 16 Norte 33 Noroeste 0 -- -- 51
2020-04-02 17:00:00 14 14 Norte 35 Norte 0 -- -- 54
2020-04-02 16:00:00 13.8 13 Noroeste 31 Norte 0 -- -- 57
2020-04-02 15:00:00 13.9 10 Noroeste 27 Norte 0 -- -- 62
2020-04-02 14:00:00 13.1 12 Norte 24 Noroeste 0 -- -- 64
2020-04-02 13:00:00 13.9 11 Noroeste 22 Norte 0 -- -- 69
2020-04-02 12:00:00 12.5 8 Noroeste 28 Nordeste 0 -- -- 72
2020-04-02 11:00:00 13.8 11 Norte 24 Norte 0 -- -- 69
2020-04-02 10:00:00 10.7 5 Oeste 10 Sudoeste 0 -- -- 88
2020-04-02 09:00:00 7.3 3 Oeste 10 Noroeste 0 -- -- 98
2020-04-02 08:00:00 6.3 8 Noroeste 10 Noroeste 0 -- -- 97
2020-04-02 07:00:00 7.2 4 Oeste 8 Oeste 0 -- -- 98
2020-04-02 06:00:00 6.9 4 Oeste 6 Oeste 0 -- -- 97
2020-04-02 05:00:00 7.3 0 Calma 4 Noroeste 0 -- -- 97
2020-04-02 04:00:00 7.4 3 Norte 8 Noroeste 0 -- -- 97
2020-04-02 03:00:00 7.5 3 Norte 5 Noroeste 0 -- -- 97
2020-04-02 02:00:00 7.7 3 Norte 4 Norte 0.2 -- -- 97
2020-04-02 01:00:00 7.7 0 Calma 6 Nordeste 0.8 -- -- 97
2020-04-02 00:00:00 7.9 5 Nordeste 8 Nordeste 0.8 -- -- 96
2020-04-01 23:00:00 8 5 Nordeste 10 Este 0.8 -- -- 96
2020-04-01 22:00:00 8.4 6 Este 10 Este 0.8 -- -- 96
2020-04-01 21:00:00 8.6 7 Este 12 Este 0.2 -- -- 95
2020-04-01 20:00:00 9 8 Este 18 Este 0 -- -- 93
2020-04-01 19:00:00 9.4 13 Sudeste 22 Sudeste 0.2 -- -- 92
2020-04-01 18:00:00 9.5 15 Este 24 Este 0 -- -- 90
2020-04-01 17:00:00 9.5 15 Sudeste 24 Sudeste 0.2 -- -- 90
2020-04-01 16:00:00 10 13 Este 21 Este 0 -- -- 91
2020-04-01 15:00:00 9.3 9 Este 21 Sudeste 0.2 -- -- 94
2020-04-01 14:00:00 8.9 12 Sudeste 18 Sudeste 0.4 -- -- 94
2020-04-01 13:00:00 8.7 7 Este 14 Este 0.4 -- -- 94
2020-04-01 12:00:00 7.5 7 Este 14 Este 2 -- -- 97
2020-04-01 11:00:00 7.1 10 Este 15 Este 1.4 -- -- 97
2020-04-01 10:00:00 6.9 8 Este 12 Sudeste 1 -- -- 97
2020-04-01 09:00:00 6.5 9 Este 13 Nordeste 1.6 -- -- 98
2020-04-01 08:00:00 6.1 5 Este 9 Este 0.8 -- -- 98
2020-04-01 07:00:00 6.2 2 Sudeste 10 Sudeste 0 -- -- 98
2020-04-01 06:00:00 6.1 6 Este 16 Este 0.4 -- -- 98
2020-04-01 05:00:00 5.8 10 Este 17 Sudeste 0.4 -- -- 98
2020-04-01 04:00:00 5.4 9 Este 16 Este 0 -- -- 98
2020-04-01 03:00:00 5.1 10 Este 17 Este 0 -- -- 98
2020-04-01 02:00:00 5.2 10 Este 15 Este 0.4 -- -- 97
2020-04-01 01:00:00 5.4 10 Este 17 Este 0 -- -- 97
2020-04-01 00:00:00 5.1 10 Este 15 Este 0 -- -- 96
2020-03-31 23:00:00 5.2 8 Este 12 Este 0 -- -- 95
2020-03-31 22:00:00 5.2 5 Nordeste 11 Este 0 -- -- 94
2020-03-31 21:00:00 5.1 5 Este 17 Este 0 -- -- 94
2020-03-31 20:00:00 5.1 8 Este 14 Este 0 -- -- 95
2020-03-31 19:00:00 5.3 8 Este 13 Este 0.4 -- -- 94
2020-03-31 18:00:00 5.2 8 Este 14 Este 0.8 -- -- 94
2020-03-31 17:00:00 5.2 10 Este 14 Este 0.8 -- -- 95
2020-03-31 16:00:00 4.7 10 Este 15 Este 0.8 -- -- 95
2020-03-31 15:00:00 4.3 11 Este 16 Este 1.2 -- -- 95
2020-03-31 14:00:00 3.8 8 Este 13 Sudeste 1 -- -- 95
2020-03-31 13:00:00 3.2 6 Este 12 Sudeste 0.6 -- -- 95
2020-03-31 12:00:00 2.5 6 Este 9 Este 0.4 -- -- 95
2020-03-31 11:00:00 1.2 2 Este 4 Este 0.2 -- -- 96
2020-03-31 10:00:00 0.9 2 Sudeste 3 Este 0.2 -- -- 96
2020-03-31 09:00:00 0.6 0 Calma -- -- 0.2 -- -- 95
2020-03-31 08:00:00 0.3 0 Calma -- -- 0 -- -- 95
2020-03-31 07:00:00 0.4 0 Calma -- -- 0.6 -- -- 95
2020-03-31 06:00:00 0.5 2 Nordeste 7 Este 1.2 -- -- 93
2020-03-31 05:00:00 1.4 6 Este 10 Este 0 -- -- 85
2020-03-31 04:00:00 1.5 5 Norte 8 Nordeste 0 -- -- 81
2020-03-31 03:00:00 1.2 6 Norte 9 Noroeste 0 -- -- 83
2020-03-31 02:00:00 1.1 5 Nordeste 7 Nordeste 0 -- -- 81
2020-03-31 01:00:00 1 4 Este 7 Este 0 -- -- 81
2020-03-31 00:00:00 1.5 5 Norte 9 Noroeste 0 -- -- 76
2020-03-30 23:00:00 2.4 3 Norte 15 Noroeste 0 -- -- 74
2020-03-30 22:00:00 2 4 Norte 15 Nordeste 0 -- -- 77
2020-03-30 21:00:00 2.9 7 Norte 17 Norte 0 -- -- 68
2020-03-30 20:00:00 4.8 5 Norte 21 Noroeste 0 -- -- 60
2020-03-30 19:00:00 6 12 Noroeste 21 Noroeste 0 -- -- 57
2020-03-30 18:00:00 7.3 6 Noroeste 23 Norte 0 -- -- 49
2020-03-30 17:00:00 7.4 9 Norte 25 Noroeste 0 -- -- 49
2020-03-30 16:00:00 9.7 14 Noroeste 27 Oeste 0 -- -- 47
2020-03-30 15:00:00 8.5 10 Noroeste 26 Noroeste 0 -- -- 47
2020-03-30 14:00:00 6.3 13 Noroeste 23 Noroeste 0 -- -- 57
2020-03-30 13:00:00 6.1 13 Noroeste 24 Noroeste 0 -- -- 53
2020-03-30 12:00:00 7.2 12 Norte 26 Norte 0 -- -- 54
2020-03-30 11:00:00 5.6 14 Noroeste 25 Noroeste 0 -- -- 64
2020-03-30 10:00:00 5 13 Noroeste 25 Noroeste 0 -- -- 60
2020-03-30 09:00:00 3.6 11 Noroeste 21 Noroeste 0 -- -- 69
2020-03-30 08:00:00 2 6 Noroeste 19 Noroeste 0 -- -- 70
2020-03-30 07:00:00 2.6 6 Noroeste 22 Norte 0 -- -- 68
2020-03-30 06:00:00 2.9 10 Norte 20 Norte 0 -- -- 67
2020-03-30 05:00:00 3.1 14 Norte 31 Norte 0 -- -- 69
2020-03-30 04:00:00 3.5 13 Norte 36 Norte 0 -- -- 71
2020-03-30 03:00:00 4.1 8 Norte 26 Norte 0 -- -- 76
2020-03-30 02:00:00 5.3 7 Norte 26 Noroeste 0 -- -- 72
2020-03-30 01:00:00 6.2 12 Noroeste 27 Noroeste 0 -- -- 73
2020-03-30 00:00:00 6.9 14 Noroeste 33 Oeste 0 -- -- 75
2020-03-29 23:00:00 7.3 13 Noroeste 24 Noroeste 0 -- -- 78
2020-03-29 22:00:00 8.1 14 Noroeste 26 Noroeste 0 -- -- 76
2020-03-29 21:00:00 8.3 15 Noroeste 27 Noroeste 0 -- -- 73
2020-03-29 20:00:00 9 17 Noroeste 31 Noroeste 0 -- -- 71
2020-03-29 19:00:00 10.8 13 Noroeste 32 Noroeste 0 -- -- 68
2020-03-29 18:00:00 12.5 17 Noroeste 31 Norte 0 -- -- 62
2020-03-29 17:00:00 13.1 13 Norte 28 Nordeste 0 -- -- 57
2020-03-29 16:00:00 15.4 14 Norte 33 Norte 0 -- -- 49
2020-03-29 15:00:00 15.7 13 Norte 28 Nordeste 0 -- -- 47
2020-03-29 14:00:00 16 10 Noroeste 25 Noroeste 0 -- -- 45
2020-03-29 13:00:00 15.4 12 Noroeste 24 Noroeste 0 -- -- 44
2020-03-29 12:00:00 14 11 Noroeste 23 Noroeste 0 -- -- 43
2020-03-29 11:00:00 12.2 9 Noroeste 17 Oeste 0 -- -- 48
2020-03-29 10:00:00 8 4 Oeste 9 Noroeste 0 -- -- 65
2020-03-29 09:00:00 5.3 5 Noroeste 13 Noroeste 0 -- -- 68
2020-03-29 08:00:00 2.3 10 Noroeste 14 Noroeste 0 -- -- 78
2020-03-29 07:00:00 2.6 6 Norte 12 Noroeste 0 -- -- 79
2020-03-29 06:00:00 3.1 4 Oeste 14 Noroeste 0 -- -- 78
2020-03-29 05:00:00 3.8 3 Noroeste 15 Noroeste 0 -- -- 75
2020-03-29 03:00:00 4.5 7 Noroeste 12 Noroeste 0 -- -- 74
2020-03-29 01:00:00 6.2 7 Noroeste 11 Norte 0 -- -- 71
2020-03-29 00:00:00 7.4 3 Oeste 15 Noroeste 0 -- -- 68
2020-03-28 23:00:00 8.7 10 Noroeste 28 Norte 0 -- -- 66
2020-03-28 22:00:00 10.5 15 Norte 27 Norte 0 -- -- 58
2020-03-28 21:00:00 10.8 8 Nordeste 18 Nordeste 0 -- -- 60
2020-03-28 20:00:00 11.7 4 Norte 13 Norte 0 -- -- 59
2020-03-28 19:00:00 15.9 3 Norte 10 Este 0 -- -- 50
2020-03-28 18:00:00 18.7 4 Noroeste 16 Sur 0 -- -- 37
2020-03-28 17:00:00 18.7 4 Sudoeste 14 Sudoeste 0 -- -- 40
2020-03-28 16:00:00 18.5 5 Sudoeste 12 Sudoeste 0 -- -- 39
2020-03-28 15:00:00 17.8 6 Oeste 15 Sur 0 -- -- 43
2020-03-28 14:00:00 16.4 5 Sur 14 Oeste 0 -- -- 46
2020-03-28 13:00:00 15.2 5 Sudeste 13 Sur 0 -- -- 53
2020-03-28 12:00:00 13.2 5 Sudoeste 10 Sudeste 0 -- -- 56
2020-03-28 11:00:00 11 5 Sudeste 10 Sudeste 0 -- -- 61
2020-03-28 10:00:00 7.7 3 Sudoeste 8 Sur 0 -- -- 72
2020-03-28 09:00:00 4 0 Calma 7 Norte 0 -- -- 87
2020-03-28 08:00:00 1.7 2 Sudoeste 8 Norte 0 -- -- 91
2020-03-28 07:00:00 1.1 8 Norte 15 Noroeste 0 -- -- 90
2020-03-28 06:00:00 1.3 0 Calma 14 Noroeste 0 -- -- 89
2020-03-28 05:00:00 1.6 8 Norte 14 Noroeste 0 -- -- 89
2020-03-28 04:00:00 1.9 6 Noroeste 13 Noroeste 0 -- -- 88
2020-03-28 03:00:00 2.5 0 Calma 10 Norte 0 -- -- 86
2020-03-28 02:00:00 3.4 0 Calma 14 Norte 0 -- -- 82
2020-03-28 01:00:00 3.6 12 Norte 14 Norte 0 -- -- 83
2020-03-28 00:00:00 4.3 2 Norte 10 Nordeste 0 -- -- 78
2020-03-27 23:00:00 5.3 4 Norte 14 Norte 0 -- -- 76
2020-03-27 22:00:00 5.5 4 Noroeste 9 Norte 0 -- -- 75
2020-03-27 21:00:00 6.1 7 Noroeste 15 Norte 0 -- -- 72
2020-03-27 20:00:00 8.1 10 Norte 17 Nordeste 0 -- -- 62
2020-03-27 19:00:00 12.1 0 Calma 8 Sur 0 -- -- 49
2020-03-27 18:00:00 14.1 4 Sudeste 14 Sudeste 0 -- -- 43
2020-03-27 17:00:00 14.3 7 Sudeste 17 Sudeste 0 -- -- 42
2020-03-27 16:00:00 14.6 9 Sudeste 17 Sudeste 0 -- -- 44
2020-03-27 15:00:00 14.1 5 Sur 15 Sudeste 0 -- -- 47
2020-03-27 14:00:00 13.7 6 Sudoeste 14 Sudoeste 0 -- -- 48
2020-03-27 13:00:00 12.5 4 Sudoeste 14 Sur 0 -- -- 49
2020-03-27 12:00:00 11.1 5 Sur 14 Sur 0 -- -- 55
2020-03-27 11:00:00 9.3 5 Oeste 12 Sudoeste 0 -- -- 57
2020-03-27 10:00:00 7.7 4 Sur 8 Oeste 0 -- -- 63
2020-03-27 09:00:00 4.9 4 Sudoeste 9 Oeste 0 -- -- 73
2020-03-27 08:00:00 2.8 3 Norte 13 Norte 0 -- -- 79
2020-03-27 07:00:00 1.7 5 Norte 11 Norte 0 -- -- 83
2020-03-27 06:00:00 1.7 6 Norte 8 Norte 0 -- -- 84
2020-03-27 05:00:00 1.4 3 Noroeste 6 Noroeste 0 -- -- 86
2020-03-27 04:00:00 1.9 0 Calma 4 Noroeste 0 -- -- 85
2020-03-27 03:00:00 1.2 0 Calma 8 Noroeste 0 -- -- 83
2020-03-27 02:00:00 0.9 0 Calma 6 Oeste 0 -- -- 80
2020-03-27 01:00:00 0.3 2 Oeste 9 Noroeste 0 -- -- 79
2020-03-27 00:00:00 1.4 4 Noroeste 6 Oeste 0 -- -- 74
2020-03-26 23:00:00 2.4 4 Norte 12 Noroeste 0 -- -- 67
2020-03-26 22:00:00 3.9 8 Noroeste 21 Noroeste 0 -- -- 62
2020-03-26 21:00:00 4.3 5 Noroeste 17 Noroeste 0 -- -- 64
2020-03-26 20:00:00 6 9 Noroeste 29 Norte 0 -- -- 54
2020-03-26 19:00:00 7.8 15 Noroeste 26 Noroeste 0 -- -- 47
2020-03-26 18:00:00 8.9 13 Noroeste 31 Noroeste 0 -- -- 44
2020-03-26 17:00:00 10.8 17 Noroeste 40 Noroeste 0 -- -- 40
2020-03-26 16:00:00 13 18 Noroeste 47 Noroeste 0 -- -- 38
2020-03-26 15:00:00 13 21 Noroeste 46 Noroeste 0 -- -- 39
2020-03-26 14:00:00 12.6 27 Noroeste 49 Noroeste 0 -- -- 41
2020-03-26 13:00:00 12.1 15 Noroeste 44 Norte 0 -- -- 42
2020-03-26 12:00:00 11.9 27 Noroeste 50 Noroeste 0 -- -- 43
2020-03-26 11:00:00 10.1 19 Noroeste 40 Noroeste 0 -- -- 53
2020-03-26 10:00:00 9.5 20 Noroeste 41 Noroeste 0 -- -- 55
2020-03-26 09:00:00 7.7 20 Noroeste 35 Oeste 0 -- -- 65
2020-03-26 08:00:00 7 15 Noroeste 31 Noroeste 0 -- -- 72
2020-03-26 07:00:00 6.7 13 Noroeste 26 Noroeste 0 -- -- 74
2020-03-26 06:00:00 6 10 Oeste 24 Oeste 0 -- -- 81
2020-03-26 05:00:00 6 11 Oeste 24 Oeste 0 -- -- 80
2020-03-26 04:00:00 5.7 11 Oeste 27 Noroeste 0 -- -- 77
2020-03-26 03:00:00 5.8 13 Oeste 22 Oeste 0 -- -- 78
2020-03-26 02:00:00 5.1 8 Oeste 18 Noroeste 0 -- -- 80
2020-03-26 01:00:00 3.1 10 Noroeste 18 Noroeste 0 -- -- 86
2020-03-26 00:00:00 2.5 5 Noroeste 13 Noroeste 0 -- -- 78
2020-03-25 23:00:00 4 6 Noroeste 23 Norte 0 -- -- 71
2020-03-25 22:00:00 6.1 14 Noroeste 27 Noroeste 0 -- -- 56
2020-03-25 21:00:00 7.2 8 Noroeste 20 Noroeste 0 -- -- 63
2020-03-25 20:00:00 9.5 11 Noroeste 21 Noroeste 0 -- -- 61
2020-03-25 19:00:00 12.5 4 Este 13 Norte 0 -- -- 46
2020-03-25 18:00:00 14.4 3 Sudeste 13 Sudeste 0 -- -- 61
2020-03-25 17:00:00 14.7 6 Sur 20 Sudeste 0 -- -- 60
2020-03-25 16:00:00 12.8 13 Sudeste 22 Este 0 -- -- 71
2020-03-25 15:00:00 13.5 8 Sudeste 24 Sudeste 0 -- -- 66
2020-03-25 14:00:00 14.4 12 Sudeste 23 Sudeste 0 -- -- 65
2020-03-25 13:00:00 12.5 12 Sudeste 22 Sudeste 0 -- -- 74
2020-03-25 12:00:00 10.2 4 Sudeste 7 Sur 0 -- -- 81
2020-03-25 11:00:00 9.1 4 Sur 9 Sur 0 -- -- 85
2020-03-25 10:00:00 8.3 4 Sudoeste 11 Oeste 0 -- -- 91
2020-03-25 09:00:00 7.8 3 Sudoeste 6 Sudoeste 0 -- -- 93
2020-03-25 08:00:00 7.6 0 Calma 3 Sur 0 -- -- 93
2020-03-25 07:00:00 7.6 0 Calma 5 Sudoeste 0 -- -- 92
2020-03-25 06:00:00 7.8 0 Calma 5 Sudeste 0 -- -- 92
2020-03-25 05:00:00 7.8 3 Este 9 Este 0 -- -- 92
2020-03-25 04:00:00 7.7 7 Este 12 Este 0 -- -- 92
2020-03-25 03:00:00 8 9 Este 16 Este 0 -- -- 92
2020-03-25 02:00:00 7.2 10 Este 19 Nordeste 0 -- -- 92
2020-03-25 01:00:00 7.5 10 Norte 13 Nordeste 0 -- -- 85
2020-03-25 00:00:00 7.1 6 Este 9 Nordeste 0 -- -- 90
2020-03-24 23:00:00 7.7 0 Calma 11 Norte 0 -- -- 88
2020-03-24 22:00:00 8.9 9 Norte 12 Norte 0 -- -- 88
2020-03-24 21:00:00 9.7 9 Noroeste 12 Noroeste 0 -- -- 86
2020-03-24 20:00:00 11.8 9 Noroeste 12 Noroeste 0 -- -- 78
2020-03-24 19:00:00 14.7 3 Oeste 9 Sudeste 0 -- -- 65
2020-03-24 18:00:00 16.4 3 Sur 10 Sudeste 0 -- -- 59
2020-03-24 17:00:00 16.8 4 Sur 13 Sudeste 0 -- -- 58
2020-03-24 16:00:00 17 4 Sur 12 Sudoeste 0 -- -- 54
2020-03-24 15:00:00 15.9 4 Sudeste 13 Sudoeste 0 -- -- 60
2020-03-24 14:00:00 15.6 6 Sudeste 12 Sudeste 0 -- -- 62
2020-03-24 13:00:00 12.6 5 Sudeste 15 Este 0 -- -- 76
2020-03-24 12:00:00 12.5 8 Sudeste 15 Sudeste 0 -- -- 80
2020-03-24 11:00:00 11.2 10 Este 18 Sudeste 0 -- -- 85
2020-03-24 10:00:00 10.3 11 Este 16 Este 0 -- -- 88
2020-03-24 09:00:00 9.5 10 Este 15 Este 0 -- -- 93
2020-03-24 08:00:00 9.3 8 Este 15 Este 0 -- -- 94
2020-03-24 07:00:00 9.2 5 Nordeste 9 Este 0 -- -- 94
2020-03-24 06:00:00 9.3 4 Este 13 Este 0 -- -- 94
2020-03-24 05:00:00 9.6 8 Este 15 Este 0 -- -- 92
2020-03-24 04:00:00 9.8 7 Este 16 Este 0 -- -- 90
2020-03-24 03:00:00 9.7 10 Este 19 Este 0 -- -- 90
2020-03-24 02:00:00 10.1 12 Este 19 Este 0 -- -- 88
2020-03-24 01:00:00 10.1 10 Este 18 Este 0 -- -- 88
2020-03-24 00:00:00 10.2 11 Este 19 Este 0 -- -- 87
2020-03-23 23:00:00 9.8 11 Este 17 Este 0 -- -- 88
2020-03-23 22:00:00 9.9 9 Este 20 Este 0 -- -- 87
2020-03-23 21:00:00 9.8 9 Este 20 Este 0 -- -- 88
2020-03-23 20:00:00 10.4 10 Este 23 Este 0.2 -- -- 87
2020-03-23 19:00:00 11.6 21 Este 40 Este 0.2 -- -- 85
2020-03-23 18:00:00 14.6 9 Sudeste 16 Este 0 -- -- 68
2020-03-23 17:00:00 16.1 9 Sudeste 21 Sudeste 0 -- -- 59
2020-03-23 16:00:00 14.6 11 Este 25 Este 0 -- -- 69
2020-03-23 15:00:00 14.3 10 Este 23 Este 0 -- -- 68
2020-03-23 14:00:00 14.3 10 Este 20 Este 0 -- -- 69
2020-03-23 13:00:00 12.9 9 Sudeste 17 Sudeste 0 -- -- 74
2020-03-23 12:00:00 13.8 9 Sudeste 18 Sudeste 0 -- -- 70
2020-03-23 11:00:00 13.7 11 Sudeste 19 Sudeste 0 -- -- 72
2020-03-23 10:00:00 12.9 12 Este 17 Sudeste 0 -- -- 75
2020-03-23 09:00:00 9.8 0 Calma 5 Norte 0 -- -- 90
2020-03-23 08:00:00 8.6 3 Norte 10 Norte 0 -- -- 92
2020-03-23 07:00:00 8.4 2 Noroeste 5 Nordeste 0 -- -- 91
2020-03-23 06:00:00 8.7 0 Calma 9 Norte 0 -- -- 90
2020-03-23 05:00:00 8.9 8 Norte 10 Norte 0 -- -- 91
2020-03-23 04:00:00 8.9 9 Norte 12 Norte 0 -- -- 91
2020-03-23 03:00:00 9.3 6 Este 12 Este 0 -- -- 88
2020-03-23 02:00:00 9 6 Norte 14 Norte 0 -- -- 86
2020-03-23 01:00:00 8.4 2 Norte 9 Noroeste 0 -- -- 90
2020-03-23 00:00:00 8.2 8 Norte 15 Noroeste 0 -- -- 89
2020-03-22 23:00:00 8.8 7 Norte 12 Norte 0 -- -- 85
2020-03-22 22:00:00 9.6 6 Norte 13 Norte 0 -- -- 82
2020-03-22 21:00:00 9.8 7 Noroeste 11 Noroeste 0 -- -- 78
2020-03-22 20:00:00 11.5 6 Este 8 Este 0 -- -- 68
2020-03-22 19:00:00 14.1 6 Sudeste 13 Sudeste 0 -- -- 61
2020-03-22 18:00:00 16 9 Sudeste 18 Sudeste 0 -- -- 56
2020-03-22 17:00:00 17.2 8 Sudeste 19 Sudeste 0 -- -- 53
2020-03-22 16:00:00 17.6 9 Sudeste 20 Sudeste 0 -- -- 54
2020-03-22 15:00:00 17.3 10 Sudeste 20 Sudeste 0 -- -- 56
2020-03-22 14:00:00 16.9 7 Sur 15 Sudeste 0 -- -- 59
2020-03-22 13:00:00 15.6 6 Sudeste 14 Sudeste 0 -- -- 56
2020-03-22 12:00:00 14.9 5 Sur 11 Sudeste 0 -- -- 61
2020-03-22 11:00:00 13.2 5 Sudeste 10 Sudeste 0 -- -- 59
2020-03-22 10:00:00 11.3 4 Sudoeste 8 Oeste 0 -- -- 69
2020-03-22 09:00:00 8.5 3 Sudeste 10 Norte 0 -- -- 83
2020-03-22 08:00:00 6.1 8 Norte 11 Norte 0 -- -- 86
2020-03-22 07:00:00 6.4 3 Este 9 Norte 0 -- -- 79
2020-03-22 06:00:00 6.9 6 Norte 11 Nordeste 0 -- -- 79
2020-03-22 05:00:00 8.5 8 Nordeste 13 Nordeste 0 -- -- 74
2020-03-22 04:00:00 8 6 Nordeste 14 Nordeste 0 -- -- 76
2020-03-22 03:00:00 7.6 9 Nordeste 15 Este 0 -- -- 73
2020-03-22 02:00:00 7.8 9 Nordeste 13 Este 0 -- -- 72
2020-03-22 01:00:00 8.3 8 Este 13 Este 0 -- -- 73
2020-03-22 00:00:00 8.9 8 Este 17 Este 0 -- -- 75
2020-03-21 23:00:00 8.7 7 Nordeste 13 Este 0 -- -- 79
2020-03-21 22:00:00 9.8 10 Este 16 Nordeste 0 -- -- 74
2020-03-21 21:00:00 10.1 9 Nordeste 15 Este 0 -- -- 69
2020-03-21 20:00:00 11 9 Este 19 Este 0 -- -- 65
2020-03-21 19:00:00 12.4 13 Este 18 Este 0 -- -- 60
2020-03-21 18:00:00 14.1 16 Este 30 Este 0 -- -- 61
2020-03-21 17:00:00 15.2 15 Este 30 Este 0 -- -- 59
2020-03-21 16:00:00 15.3 18 Sudeste 33 Sudeste 0 -- -- 59
2020-03-21 15:00:00 14.7 21 Este 35 Este 0 -- -- 60
2020-03-21 14:00:00 14.1 21 Este 33 Este 0 -- -- 60
2020-03-21 13:00:00 12.7 14 Sudeste 26 Este 0 -- -- 69
2020-03-21 12:00:00 12.3 16 Este 27 Este 0 -- -- 67
2020-03-21 11:00:00 11.2 15 Este 27 Este 0 -- -- 72
2020-03-21 10:00:00 9.9 16 Sudeste 25 Este 0 -- -- 79
2020-03-21 09:00:00 8.3 12 Este 22 Este 0 -- -- 86
2020-03-21 08:00:00 6.5 6 Este 22 Este 0 -- -- 90
2020-03-21 07:00:00 7 11 Este 18 Este 0 -- -- 89
2020-03-21 06:00:00 6.7 9 Este 21 Este 0 -- -- 90
2020-03-21 05:00:00 6.6 12 Este 20 Este 0 -- -- 89
2020-03-21 04:00:00 6.9 10 Este 26 Este 0 -- -- 87
2020-03-21 03:00:00 7.4 13 Este 21 Este 0 -- -- 87
2020-03-21 02:00:00 7.8 10 Este 19 Este 0 -- -- 87
2020-03-21 01:00:00 8.3 10 Este 19 Este 0 -- -- 85
2020-03-21 00:00:00 8.8 14 Este 22 Este 0 -- -- 84
2020-03-20 23:00:00 9.6 16 Este 23 Este 0 -- -- 82
2020-03-20 22:00:00 9.7 15 Este 21 Este 0 -- -- 83
2020-03-20 21:00:00 10.1 14 Este 23 Este 0 -- -- 80
2020-03-20 20:00:00 10 13 Este 18 Sudeste 0 -- -- 80
2020-03-20 19:00:00 11.6 14 Sudeste 33 Este 0 -- -- 73
2020-03-20 18:00:00 12.8 21 Sudeste 38 Sudeste 0 -- -- 67
2020-03-20 17:00:00 13.7 21 Sudeste 41 Sudeste 0 -- -- 66
2020-03-20 16:00:00 13.9 27 Sudeste 46 Este 0 -- -- 66
2020-03-20 15:00:00 14.2 28 Este 46 Este 0 -- -- 65
2020-03-20 14:00:00 13 21 Sudeste 34 Sudeste 0 -- -- 70
2020-03-20 13:00:00 10.7 18 Este 32 Sudeste 0 -- -- 78
2020-03-20 12:00:00 9.3 18 Este 31 Sudeste 0 -- -- 82
2020-03-20 11:00:00 8.1 17 Sudeste 30 Este 0 -- -- 86
2020-03-20 10:00:00 7.6 13 Sudeste 23 Este 0 -- -- 88
2020-03-20 09:00:00 7.2 11 Este 19 Este 0 -- -- 88
2020-03-20 08:00:00 6.2 10 Este 18 Este 0 -- -- 88
2020-03-20 07:00:00 6.1 11 Este 19 Este 0 -- -- 88
2020-03-20 06:00:00 5.8 10 Nordeste 16 Este 0 -- -- 87
2020-03-20 05:00:00 5.5 8 Nordeste 13 Este 0 -- -- 89
2020-03-20 04:00:00 6.5 7 Este 15 Nordeste 0 -- -- 88
2020-03-20 03:00:00 7.6 10 Este 19 Este 0 -- -- 87
2020-03-20 02:00:00 8.1 12 Este 21 Este 0 -- -- 79
2020-03-20 01:00:00 8.5 13 Este 21 Este 0 -- -- 82
2020-03-20 00:00:00 9.6 10 Este 20 Este 0 -- -- 85
2020-03-19 23:00:00 10.2 14 Este 22 Este 0 -- -- 87
2020-03-19 22:00:00 10.8 14 Este 19 Este 0 -- -- 86
2020-03-19 21:00:00 10.9 10 Este 14 Este 0 -- -- 85
2020-03-19 20:00:00 11.1 6 Este 10 Este 0 -- -- 84
2020-03-19 19:00:00 12.8 7 Sudeste 18 Sudeste 0 -- -- 78
2020-03-19 18:00:00 14.5 12 Sudeste 27 Sudeste 0 -- -- 72
2020-03-19 17:00:00 15.9 14 Sudeste 27 Sudeste 0 -- -- 69
2020-03-19 16:00:00 16.3 16 Sudeste 33 Sudeste 0 -- -- 65
2020-03-19 15:00:00 16.5 17 Sudeste 30 Sudeste 0 -- -- 67
2020-03-19 14:00:00 16.2 18 Este 29 Sudeste 0 -- -- 66
2020-03-19 13:00:00 15.2 14 Este 24 Sudeste 0 -- -- 77
2020-03-19 12:00:00 13.9 13 Este 23 Este 0 -- -- 78
2020-03-19 11:00:00 13.3 15 Este 24 Este 0 -- -- 79
2020-03-19 10:00:00 11.6 12 Este 20 Este 0 -- -- 88
2020-03-19 09:00:00 10.3 9 Este 15 Este 0 -- -- 90
2020-03-19 08:00:00 8.8 8 Este 10 Este 0 -- -- 94
2020-03-19 07:00:00 8.6 0 Calma 10 Este 0 -- -- 92
2020-03-19 06:00:00 8.3 5 Este 8 Este 0 -- -- 92
2020-03-19 05:00:00 9.7 6 Este 14 Nordeste 0 -- -- 84
2020-03-19 04:00:00 9.5 7 Nordeste 15 Nordeste 0 -- -- 83
2020-03-19 03:00:00 10 9 Este 17 Nordeste 0 -- -- 87
2020-03-19 02:00:00 10 9 Nordeste 15 Nordeste 0 -- -- 89
2020-03-19 01:00:00 9.6 3 Este 12 Este 0 -- -- 87
2020-03-19 00:00:00 10.7 7 Nordeste 17 Este 0 -- -- 83
2020-03-18 23:00:00 10.9 8 Nordeste 17 Nordeste 0 -- -- 81
2020-03-18 22:00:00 11 10 Nordeste 14 Nordeste 0 -- -- 83
2020-03-18 21:00:00 10.9 7 Nordeste 10 Norte 0 -- -- 90
2020-03-18 20:00:00 11.5 7 Este 9 Este 0 -- -- 88
2020-03-18 19:00:00 13.2 5 Este 8 Sudeste 0 -- -- 81
2020-03-18 18:00:00 14.6 5 Sudeste 14 Sudeste 0 -- -- 79
2020-03-18 17:00:00 15.3 8 Este 16 Este 0 -- -- 75
2020-03-18 16:00:00 15.6 10 Sudeste 17 Este 0 -- -- 70
2020-03-18 15:00:00 15.4 9 Sudeste 17 Este 0 -- -- 75
2020-03-18 14:00:00 14.8 11 Sudeste 16 Este 0 -- -- 76
2020-03-18 13:00:00 14.4 10 Este 17 Nordeste 0 -- -- 79
2020-03-18 12:00:00 14.5 13 Este 17 Este 0 -- -- 81
2020-03-18 11:00:00 12.9 9 Este 14 Este 0 -- -- 86
2020-03-18 10:00:00 9.8 4 Sudeste 8 Este 0 -- -- 99
2020-03-18 09:00:00 7.5 2 Este 6 Norte 0 -- -- 99
2020-03-18 08:00:00 6 0 Calma 4 Norte 0 -- -- 98
2020-03-18 07:00:00 6.4 0 Calma 4 Este 0 -- -- 97
2020-03-18 06:00:00 6.6 0 Calma 5 Norte 0 -- -- 97
2020-03-18 05:00:00 7.2 0 Calma 4 Oeste 0 -- -- 97
2020-03-18 04:00:00 7.4 0 Calma 7 Norte 0 -- -- 97
2020-03-18 03:00:00 7.3 3 Nordeste 12 Nordeste 0 -- -- 97
2020-03-18 02:00:00 7.6 5 Nordeste 10 Nordeste 0 -- -- 96
2020-03-18 01:00:00 7.6 0 Calma 6 Norte 0 -- -- 96
2020-03-18 00:00:00 8.2 2 Este 12 Norte 0 -- -- 94
2020-03-17 23:00:00 8.3 9 Nordeste 12 Nordeste 0 -- -- 96
2020-03-17 22:00:00 8.6 4 Norte 9 Norte 0 -- -- 93
2020-03-17 21:00:00 9.6 5 Nordeste 8 Nordeste 0 -- -- 92
2020-03-17 20:00:00 10.7 5 Norte 8 Este 0 -- -- 90
2020-03-17 19:00:00 10.9 4 Nordeste 9 Nordeste 0 -- -- 91
2020-03-17 18:00:00 11 4 Norte 8 Norte 0 -- -- 91
2020-03-17 17:00:00 10.6 0 Calma 5 Oeste 0 -- -- 91
2020-03-17 16:00:00 10.3 3 Oeste 7 Oeste 0 -- -- 92
2020-03-17 15:00:00 10.3 2 Sudoeste 6 Sudoeste 0 -- -- 91
2020-03-17 14:00:00 9.9 3 Sudoeste 7 Sudoeste 0 -- -- 94
2020-03-17 13:00:00 9.4 3 Sudoeste 6 Sudoeste 0 -- -- 96
2020-03-17 12:00:00 9 3 Oeste 7 Oeste 0 -- -- 96
2020-03-17 11:00:00 8.6 4 Oeste 9 Sudoeste 0 -- -- 97
2020-03-17 10:00:00 8.3 2 Sudoeste 8 Sudoeste 0 -- -- 97
2020-03-17 09:00:00 7.9 3 Oeste 8 Oeste 0.2 -- -- 97
2020-03-17 08:00:00 7.6 3 Noroeste 10 Noroeste 0 -- -- 98
2020-03-17 07:00:00 7.5 5 Oeste 8 Oeste 0 -- -- 97
2020-03-17 06:00:00 7.4 0 Calma 10 Noroeste 0 -- -- 97
2020-03-17 05:00:00 7.5 6 Oeste 8 Oeste 0.4 -- -- 95
2020-03-17 04:00:00 8.1 3 Sudoeste 19 Norte 0 -- -- 93
2020-03-17 03:00:00 8.3 5 Norte 17 Norte 0.2 -- -- 92
2020-03-17 02:00:00 8.3 10 Norte 21 Noroeste 0.6 -- -- 92
2020-03-17 01:00:00 8.3 6 Noroeste 30 Norte 0.6 -- -- 91
2020-03-17 00:00:00 7.9 13 Norte 32 Noroeste 4.6 -- -- 95
2020-03-16 23:00:00 7.2 4 Oeste 14 Sudoeste 1.6 -- -- 95
2020-03-16 22:00:00 8.4 4 Noroeste 23 Norte 0.6 -- -- 89
2020-03-16 21:00:00 8.4 9 Norte 29 Noroeste 0 -- -- 87
2020-03-16 20:00:00 8 14 Norte 26 Norte 1 -- -- 90
2020-03-16 19:00:00 8.1 11 Norte 25 Norte 0.6 -- -- 87
2020-03-16 18:00:00 8 12 Norte 27 Norte 0.2 -- -- 88
2020-03-16 17:00:00 7.9 13 Norte 28 Norte 0.4 -- -- 88
2020-03-16 16:00:00 7.6 14 Norte 30 Norte 1 -- -- 91
2020-03-16 15:00:00 6.8 14 Norte 28 Norte 2 -- -- 92
2020-03-16 14:00:00 6.5 9 Norte 22 Norte 2.4 -- -- 92
2020-03-16 13:00:00 5.7 5 Noroeste 15 Oeste 3 -- -- 98
2020-03-16 12:00:00 3.6 6 Sudoeste 15 Oeste 2.4 -- -- 97
2020-03-16 11:00:00 2.7 8 Oeste 17 Sudoeste 3.4 -- -- 96
2020-03-16 10:00:00 2.8 9 Oeste 17 Oeste 2.4 -- -- 95
2020-03-16 09:00:00 3 7 Oeste 19 Sudoeste 2.4 -- -- 95
2020-03-16 08:00:00 3.5 8 Sudoeste 20 Oeste 1.8 -- -- 94
2020-03-16 07:00:00 4.3 5 Oeste 10 Sudoeste 1.6 -- -- 94
2020-03-16 06:00:00 4.6 3 Sudoeste 16 Noroeste 1.4 -- -- 93
2020-03-16 05:00:00 5.3 5 Noroeste 12 Noroeste 2.2 -- -- 94
2020-03-16 04:00:00 5.4 4 Noroeste 12 Noroeste 0.4 -- -- 92
2020-03-16 03:00:00 5.5 6 Noroeste 17 Norte 1.8 -- -- 91
2020-03-16 02:00:00 5.9 7 Noroeste 21 Noroeste 2 -- -- 91
2020-03-16 01:00:00 6.6 13 Noroeste 27 Norte 1 -- -- 87
2020-03-16 00:00:00 7.7 14 Norte 29 Norte 1 -- -- 88
2020-03-15 23:00:00 8.1 7 Norte 21 Norte 2.8 -- -- 88
2020-03-15 22:00:00 8.9 11 Nordeste 29 Noroeste 0 -- -- 86
2020-03-15 21:00:00 9.8 18 Noroeste 30 Noroeste 1 -- -- 85
2020-03-15 20:00:00 12 2 Sudeste 16 Oeste 7 -- -- 92
2020-03-15 19:00:00 12.7 12 Este 24 Este 2 -- -- 87
2020-03-15 18:00:00 13.8 8 Sudeste 21 Este 2 -- -- 82
2020-03-15 17:00:00 15.8 15 Este 28 Este 0 -- -- 68
2020-03-15 16:00:00 16.6 14 Sudeste 26 Sudeste 0 -- -- 64
2020-03-15 15:00:00 17.5 15 Este 30 Este 0 -- -- 60
2020-03-15 14:00:00 17 15 Sudeste 27 Este 0 -- -- 55
2020-03-15 13:00:00 15.6 16 Este 34 Este 0 -- -- 58
2020-03-15 12:00:00 13 13 Este 25 Este 0 -- -- 66
2020-03-15 11:00:00 11.8 13 Este 23 Este 0 -- -- 70
2020-03-15 10:00:00 10.5 11 Este 21 Este 0 -- -- 74
2020-03-15 09:00:00 8.7 12 Este 20 Este 0 -- -- 83
2020-03-15 08:00:00 6.6 10 Nordeste 18 Este 0 -- -- 88
2020-03-15 07:00:00 4.9 10 Nordeste 17 Este 0 -- -- 86
2020-03-15 06:00:00 2.9 2 Nordeste 7 Norte 0 -- -- 87
2020-03-15 05:00:00 2.9 2 Este 9 Norte 0 -- -- 88
2020-03-15 04:00:00 2.7 0 Calma 12 Nordeste 0 -- -- 90
2020-03-15 03:00:00 2.9 9 Norte 10 Norte 0 -- -- 89
2020-03-15 02:00:00 4.3 3 Norte 9 Norte 0 -- -- 79
2020-03-15 01:00:00 4 5 Norte 8 Norte 0 -- -- 82
2020-03-15 00:00:00 5.2 2 Este 17 Norte 0 -- -- 78
2020-03-14 23:00:00 6.1 11 Noroeste 14 Noroeste 0 -- -- 76
2020-03-14 22:00:00 7 5 Norte 13 Norte 0 -- -- 73
2020-03-14 21:00:00 8.4 2 Oeste 9 Norte 0 -- -- 68
2020-03-14 20:00:00 10.2 6 Norte 12 Nordeste 0 -- -- 61
2020-03-14 19:00:00 15.2 4 Noroeste 12 Oeste 0 -- -- 44
2020-03-14 18:00:00 18 7 Noroeste 15 Noroeste 0 -- -- 35
2020-03-14 17:00:00 18.7 7 Noroeste 16 Noroeste 0 -- -- 32
2020-03-14 16:00:00 18.4 5 Norte 15 Norte 0 -- -- 36
2020-03-14 15:00:00 17.8 8 Noroeste 15 Noroeste 0 -- -- 37
2020-03-14 14:00:00 16.4 7 Oeste 16 Oeste 0 -- -- 42
2020-03-14 13:00:00 16 6 Norte 24 Noroeste 0 -- -- 43
2020-03-14 12:00:00 14.7 7 Noroeste 20 Noroeste 0 -- -- 49
2020-03-14 11:00:00 12.4 5 Sur 12 Noroeste 0 -- -- 55
2020-03-14 10:00:00 9 4 Sudoeste 7 Sudoeste 0 -- -- 69
2020-03-14 09:00:00 5.6 0 Calma 5 Oeste 0 -- -- 72
2020-03-14 08:00:00 1.8 3 Noroeste 9 Norte 0 -- -- 91
2020-03-14 07:00:00 0.9 2 Norte 12 Norte 0 -- -- 89
2020-03-14 06:00:00 0.9 9 Norte 12 Norte 0 -- -- 91
2020-03-14 05:00:00 1.7 6 Norte 17 Norte 0 -- -- 92
2020-03-14 04:00:00 2 6 Norte 10 Noroeste 0 -- -- 89
2020-03-14 03:00:00 3.1 6 Noroeste 12 Noroeste 0 -- -- 91
2020-03-14 02:00:00 2.8 9 Noroeste 11 Noroeste 0 -- -- 89
2020-03-14 01:00:00 4.5 6 Noroeste 13 Noroeste 0 -- -- 86
2020-03-14 00:00:00 5.7 4 Noroeste 18 Norte 0 -- -- 81
2020-03-13 23:00:00 6.7 12 Norte 25 Norte 0 -- -- 78
2020-03-13 22:00:00 6.9 8 Norte 20 Norte 0 -- -- 78
2020-03-13 21:00:00 7.4 9 Norte 16 Norte 0 -- -- 76
2020-03-13 20:00:00 8.4 9 Norte 18 Norte 0 -- -- 72
2020-03-13 19:00:00 10 6 Norte 19 Norte 0 -- -- 68
2020-03-13 18:00:00 10.9 13 Norte 24 Nordeste 0 -- -- 65
2020-03-13 17:00:00 12.8 11 Norte 23 Norte 0 -- -- 63
2020-03-13 16:00:00 13.8 9 Norte 27 Noroeste 0 -- -- 59
2020-03-13 15:00:00 14.4 15 Noroeste 24 Noroeste 0 -- -- 58
2020-03-13 14:00:00 15.5 10 Noroeste 22 Noroeste 0 -- -- 54
2020-03-13 13:00:00 15.1 13 Noroeste 22 Oeste 0 -- -- 56
2020-03-13 12:00:00 14.4 9 Norte 24 Norte 0 -- -- 57
2020-03-13 11:00:00 13.4 12 Noroeste 28 Noroeste 0 -- -- 65
2020-03-13 10:00:00 11 15 Noroeste 26 Noroeste 0 -- -- 70
2020-03-13 09:00:00 9.4 12 Noroeste 24 Noroeste 0 -- -- 73
2020-03-13 08:00:00 9.2 10 Noroeste 30 Norte 0 -- -- 75
2020-03-13 07:00:00 9 12 Noroeste 28 Nordeste 0 -- -- 76
2020-03-13 06:00:00 8.8 12 Noroeste 26 Norte 0 -- -- 76
2020-03-13 05:00:00 8.8 10 Noroeste 30 Norte 0 -- -- 77
2020-03-13 04:00:00 9.4 12 Noroeste 26 Norte 0 -- -- 77
2020-03-13 03:00:00 9.9 10 Noroeste 24 Norte 0 -- -- 78
2020-03-13 02:00:00 10 9 Noroeste 25 Noroeste 0 -- -- 79
2020-03-13 01:00:00 10.2 10 Noroeste 27 Norte 0 -- -- 80
2020-03-13 00:00:00 10.9 11 Noroeste 29 Noroeste 0 -- -- 79
2020-03-12 23:00:00 10.9 12 Noroeste 28 Noroeste 0 -- -- 79
2020-03-12 22:00:00 10.6 15 Norte 32 Norte 0.2 -- -- 82
2020-03-12 21:00:00 11.3 13 Noroeste 24 Noroeste 0 -- -- 79
2020-03-12 20:00:00 11.5 12 Norte 28 Norte 0 -- -- 79
2020-03-12 19:00:00 12.4 11 Norte 31 Noroeste 0 -- -- 77
2020-03-12 18:00:00 13.8 15 Norte 32 Norte 0 -- -- 73
2020-03-12 17:00:00 15.4 13 Norte 29 Norte 0 -- -- 68
2020-03-12 16:00:00 17.4 15 Norte 29 Norte 0 -- -- 63
2020-03-12 15:00:00 19.8 10 Norte 21 Norte 0 -- -- 58
2020-03-12 14:00:00 19.2 10 Oeste 18 Oeste 0 -- -- 59
2020-03-12 13:00:00 18.8 7 Noroeste 15 Noroeste 0 -- -- 60
2020-03-12 12:00:00 17.5 9 Norte 17 Norte 0 -- -- 63
2020-03-12 11:00:00 16.9 10 Norte 23 Norte 0 -- -- 67
2020-03-12 10:00:00 15.1 6 Noroeste 13 Noroeste 0 -- -- 74
2020-03-12 09:00:00 12.8 10 Noroeste 16 Noroeste 0 -- -- 79
2020-03-12 08:00:00 10.6 8 Norte 15 Norte 0 -- -- 84
2020-03-12 07:00:00 10.9 2 Este 9 Norte 0 -- -- 81
2020-03-12 06:00:00 11.1 0 Calma 10 Norte 0 -- -- 80
2020-03-12 05:00:00 11.6 4 Norte 7 Norte 0 -- -- 79
2020-03-12 04:00:00 12.1 2 Norte 6 Norte 0 -- -- 76
2020-03-12 03:00:00 12.2 0 Calma 12 Norte 0 -- -- 76
2020-03-12 02:00:00 12.8 10 Norte 12 Norte 0 -- -- 74
2020-03-12 01:00:00 12.9 4 Norte 11 Norte 0 -- -- 74
2020-03-12 00:00:00 13 4 Este 13 Norte 0 -- -- 72
2020-03-11 23:00:00 13.5 2 Este 11 Norte 0 -- -- 68
2020-03-11 22:00:00 13.8 3 Noroeste 12 Norte 0 -- -- 64
2020-03-11 21:00:00 13.9 9 Norte 12 Norte 0 -- -- 64
2020-03-11 20:00:00 15.4 5 Nordeste 10 Nordeste 0 -- -- 60
2020-03-11 19:00:00 18.4 6 Este 8 Este 0 -- -- 50
2020-03-11 18:00:00 21.6 6 Este 9 Este 0 -- -- 47
2020-03-11 17:00:00 22.3 4 Sudeste 9 Sudeste 0 -- -- 44
2020-03-11 16:00:00 22.7 4 Oeste 9 Sudeste 0 -- -- 43
2020-03-11 15:00:00 21.7 3 Sur 8 Sudoeste 0 -- -- 45
2020-03-11 14:00:00 20.6 6 Sudeste 11 Sudeste 0 -- -- 47
2020-03-11 13:00:00 19.2 4 Sur 10 Sudeste 0 -- -- 54
2020-03-11 12:00:00 17.4 5 Sur 9 Oeste 0 -- -- 61
2020-03-11 11:00:00 14.5 4 Sudoeste 9 Sudoeste 0 -- -- 71
2020-03-11 10:00:00 11.7 3 Sudoeste 5 Sudoeste 0 -- -- 76
2020-03-11 09:00:00 8.8 3 Oeste 7 Oeste 0 -- -- 81
2020-03-11 08:00:00 5.5 5 Noroeste 13 Noroeste 0 -- -- 93
2020-03-11 07:00:00 5.6 16 Noroeste 18 Noroeste 0 -- -- 92
2020-03-11 06:00:00 5.8 4 Noroeste 13 Noroeste 0 -- -- 89
2020-03-11 05:00:00 5.8 5 Noroeste 13 Norte 0 -- -- 89
2020-03-11 04:00:00 6.9 10 Noroeste 13 Noroeste 0 -- -- 86
2020-03-11 03:00:00 7.3 10 Norte 13 Noroeste 0 -- -- 82
2020-03-11 02:00:00 8.4 12 Noroeste 15 Noroeste 0 -- -- 78
2020-03-11 01:00:00 8.9 12 Noroeste 15 Noroeste 0 -- -- 82
2020-03-11 00:00:00 9.2 8 Noroeste 12 Noroeste 0 -- -- 83
2020-03-10 23:00:00 10 7 Noroeste 12 Noroeste 0 -- -- 82
2020-03-10 22:00:00 10.6 3 Noroeste 10 Nordeste 0 -- -- 78
2020-03-10 21:00:00 12.2 8 Este 13 Este 0 -- -- 63
2020-03-10 20:00:00 14 8 Nordeste 13 Nordeste 0 -- -- 54
2020-03-10 19:00:00 16.5 8 Este 13 Este 0 -- -- 53
2020-03-10 18:00:00 18.7 10 Este 17 Este 0 -- -- 53
2020-03-10 17:00:00 18.8 12 Este 18 Este 0 -- -- 58
2020-03-10 16:00:00 20.4 13 Este 18 Este 0 -- -- 56
2020-03-10 15:00:00 21.7 3 Sur 10 Sur 0 -- -- 44
2020-03-10 14:00:00 21.2 3 Sudeste 10 Norte 0 -- -- 43
2020-03-10 13:00:00 19.1 5 Sudeste 17 Nordeste 0 -- -- 48
2020-03-10 12:00:00 16.2 3 Sudeste 6 Sudeste 0 -- -- 59
2020-03-10 11:00:00 12.5 4 Sur 8 Sudoeste 0 -- -- 70
2020-03-10 10:00:00 9.3 2 Sur 7 Este 0 -- -- 73
2020-03-10 09:00:00 6.2 0 Calma 4 Norte 0 -- -- 87
2020-03-10 08:00:00 5.2 4 Noroeste 9 Norte 0 -- -- 85
2020-03-10 07:00:00 5 0 Calma 7 Sudeste 0 -- -- 86
2020-03-10 06:00:00 5.3 3 Este 7 Este 0 -- -- 84
2020-03-10 05:00:00 5.1 0 Calma 15 Noroeste 0 -- -- 84
2020-03-10 04:00:00 5.8 13 Norte 16 Norte 0 -- -- 80
2020-03-10 03:00:00 6.5 13 Noroeste 21 Noroeste 0 -- -- 76
2020-03-10 02:00:00 5.7 9 Noroeste 17 Oeste 0 -- -- 83
2020-03-10 01:00:00 6 8 Noroeste 15 Noroeste 0 -- -- 85
2020-03-10 00:00:00 6.4 6 Oeste 23 Noroeste 0 -- -- 82